createdAt,value
2018-06-05T00:00:54.900Z,88.00
2018-06-05T00:03:23.303Z,88.40
2018-06-05T00:05:51.827Z,88.50
2018-06-05T00:08:20.255Z,89.40
2018-06-05T00:10:48.658Z,88.70
2018-06-05T00:13:17.255Z,89.00
2018-06-05T00:15:45.806Z,89.30
2018-06-05T00:20:42.365Z,89.80
2018-06-05T00:23:10.806Z,89.70
2018-06-05T00:25:39.356Z,89.90
2018-06-05T00:28:07.915Z,89.70
2018-06-05T00:30:36.534Z,89.50
2018-06-05T00:33:04.965Z,89.40
2018-06-05T00:35:33.437Z,89.00
2018-06-05T00:38:01.899Z,88.80
2018-06-05T00:40:30.435Z,89.00
2018-06-05T00:42:58.990Z,89.10
2018-06-05T00:45:27.440Z,89.10
2018-06-05T00:47:55.875Z,89.00
2018-06-05T00:50:24.338Z,89.00
2018-06-05T00:52:52.945Z,89.10
2018-06-05T00:55:21.372Z,89.30
2018-06-05T00:57:49.861Z,89.60
2018-06-05T01:00:18.376Z,90.30
2018-06-05T01:02:46.862Z,90.20
2018-06-05T01:05:15.447Z,90.30
2018-06-05T01:07:43.969Z,90.40
2018-06-05T01:10:12.536Z,90.70
2018-06-05T01:12:40.958Z,90.70
2018-06-05T01:15:09.631Z,90.40
2018-06-05T01:17:38.354Z,90.20
2018-06-05T01:20:06.869Z,90.30
2018-06-05T01:22:35.554Z,90.10
2018-06-05T01:25:04.194Z,90.00
2018-06-05T01:27:32.728Z,90.00
2018-06-05T01:30:01.138Z,90.20
2018-06-05T01:32:29.725Z,90.30
2018-06-05T01:34:58.120Z,90.20
2018-06-05T01:37:26.554Z,90.20
2018-06-05T01:39:55.099Z,90.40
2018-06-05T01:42:23.589Z,90.50
2018-06-05T01:44:52.004Z,90.50
2018-06-05T01:47:21.051Z,90.40
2018-06-05T01:49:49.759Z,90.30
2018-06-05T01:52:18.310Z,90.30
2018-06-05T01:54:46.791Z,90.60
2018-06-05T01:57:16.107Z,90.70
2018-06-05T01:59:44.611Z,90.30
2018-06-05T02:04:41.650Z,90.30
2018-06-05T02:07:10.080Z,90.30
2018-06-05T02:09:38.545Z,90.10
2018-06-05T02:12:07.074Z,90.10
2018-06-05T02:14:35.590Z,90.30
2018-06-05T02:17:04.067Z,90.30
2018-06-05T02:19:32.488Z,90.40
2018-06-05T02:22:01.024Z,90.50
2018-06-05T02:24:29.463Z,90.40
2018-06-05T02:26:58.022Z,90.90
2018-06-05T02:29:26.477Z,90.40
2018-06-05T02:31:54.947Z,90.40
2018-06-05T02:34:23.367Z,90.70
2018-06-05T02:36:51.758Z,91.20
2018-06-05T02:39:20.223Z,90.70
2018-06-05T02:41:48.816Z,90.80
2018-06-05T02:44:17.304Z,90.50
2018-06-05T02:46:45.903Z,90.50
2018-06-05T02:49:14.439Z,90.70
2018-06-05T02:51:42.964Z,90.40
2018-06-05T02:54:12.011Z,90.60
2018-06-05T02:56:40.732Z,90.60
2018-06-05T02:59:09.409Z,90.60
2018-06-05T03:01:37.931Z,90.80
2018-06-05T03:04:06.643Z,90.50
2018-06-05T03:06:35.818Z,90.80
2018-06-05T03:09:05.600Z,91.00
2018-06-05T03:11:34.831Z,91.30
2018-06-05T03:14:03.416Z,91.00
2018-06-05T03:16:31.819Z,91.30
2018-06-05T03:19:00.264Z,91.40
2018-06-05T03:21:28.655Z,91.30
2018-06-05T03:23:57.144Z,91.00
2018-06-05T03:26:25.647Z,91.20
2018-06-05T03:28:54.105Z,91.20
2018-06-05T03:31:22.552Z,91.20
2018-06-05T03:33:51.153Z,91.10
2018-06-05T03:36:19.588Z,91.10
2018-06-05T03:38:48.026Z,91.10
2018-06-05T03:41:16.520Z,91.30
2018-06-05T03:43:45.186Z,91.00
2018-06-05T03:46:13.983Z,91.30
2018-06-05T03:48:42.383Z,91.10
2018-06-05T03:51:10.863Z,91.20
2018-06-05T03:53:39.738Z,91.40
2018-06-05T03:56:08.175Z,91.50
2018-06-05T03:58:36.608Z,91.30
2018-06-05T04:01:05.087Z,91.30
2018-06-05T04:03:33.503Z,91.50
2018-06-05T04:06:02.140Z,91.50
2018-06-05T04:08:30.566Z,91.40
2018-06-05T04:10:59.760Z,91.30
2018-06-05T04:13:28.411Z,91.60
2018-06-05T04:15:57.037Z,91.50
2018-06-05T04:18:25.677Z,91.50
2018-06-05T04:20:54.102Z,91.50
2018-06-05T04:23:22.817Z,91.40
2018-06-05T04:25:51.312Z,91.40
2018-06-05T04:28:19.768Z,91.40
2018-06-05T04:30:48.183Z,91.40
2018-06-05T04:33:16.608Z,91.50
2018-06-05T04:35:45.121Z,91.50
2018-06-05T04:38:13.654Z,91.60
2018-06-05T04:40:42.287Z,91.60
2018-06-05T04:43:10.851Z,91.60
2018-06-05T04:45:39.821Z,91.70
2018-06-05T04:48:08.649Z,91.80
2018-06-05T04:50:37.367Z,92.00
2018-06-05T04:53:06.320Z,91.80
2018-06-05T04:55:34.802Z,91.70
2018-06-05T04:58:03.338Z,91.80
2018-06-05T05:00:31.756Z,91.70
2018-06-05T05:03:00.275Z,92.00
2018-06-05T05:05:28.790Z,91.60
2018-06-05T05:07:57.243Z,91.60
2018-06-05T05:10:25.695Z,91.50
2018-06-05T05:12:54.158Z,91.60
2018-06-05T05:15:22.614Z,91.70
2018-06-05T05:17:51.103Z,91.60
2018-06-05T05:20:19.708Z,91.30
2018-06-05T05:22:48.331Z,91.20
2018-06-05T05:25:16.774Z,91.20
2018-06-05T05:27:45.322Z,91.30
2018-06-05T05:30:13.788Z,90.60
2018-06-05T05:32:42.289Z,90.50
2018-06-05T05:35:10.836Z,89.90
2018-06-05T05:37:39.280Z,89.10
2018-06-05T05:40:08.109Z,88.50
2018-06-05T05:45:05.321Z,88.70
2018-06-05T05:47:33.732Z,86.50
2018-06-05T05:50:02.211Z,85.90
2018-06-05T05:52:30.670Z,85.30
2018-06-05T05:54:59.118Z,84.50
2018-06-05T05:57:27.675Z,84.00
2018-06-05T05:59:56.113Z,83.70
2018-06-05T06:02:25.475Z,83.20
2018-06-05T06:04:54.039Z,82.70
2018-06-05T06:07:22.508Z,80.60
2018-06-05T06:09:51.543Z,79.20
2018-06-05T06:12:20.106Z,78.70
2018-06-05T06:14:48.547Z,78.50
2018-06-05T06:17:17.173Z,78.10
2018-06-05T06:19:45.883Z,78.40
2018-06-05T06:22:14.427Z,78.00
2018-06-05T06:24:42.890Z,78.60
2018-06-05T06:29:39.576Z,78.80
2018-06-05T06:32:08.191Z,78.20
2018-06-05T06:34:36.643Z,78.10
2018-06-05T06:37:05.104Z,77.80
2018-06-05T06:39:33.556Z,77.70
2018-06-05T06:42:02.094Z,77.30
2018-06-05T06:44:30.657Z,78.50
2018-06-05T06:46:59.110Z,78.50
2018-06-05T06:49:27.709Z,78.00
2018-06-05T06:51:56.157Z,78.50
2018-06-05T06:54:24.591Z,77.60
2018-06-05T06:56:53.193Z,77.00
2018-06-05T06:59:21.707Z,76.40
2018-06-05T07:01:50.151Z,77.60
2018-06-05T07:04:18.558Z,77.90
2018-06-05T07:06:46.984Z,79.70
2018-06-05T07:09:15.473Z,81.10
2018-06-05T07:11:44.045Z,80.30
2018-06-05T07:14:12.544Z,79.00
2018-06-05T07:16:41.082Z,73.00
2018-06-05T07:19:09.549Z,71.70
2018-06-05T07:24:06.183Z,73.80
2018-06-05T07:26:34.704Z,71.00
2018-06-05T07:29:03.248Z,71.10
2018-06-05T07:31:32.151Z,68.10
2018-06-05T07:34:00.664Z,68.50
2018-06-05T07:36:29.229Z,68.40
2018-06-05T07:38:57.749Z,68.30
2018-06-05T07:41:26.335Z,67.90
2018-06-05T07:43:54.773Z,67.50
2018-06-05T07:46:23.335Z,66.40
2018-06-05T07:48:51.871Z,66.10
2018-06-05T07:51:20.379Z,66.00
2018-06-05T07:53:48.776Z,65.40
2018-06-05T07:56:17.334Z,65.10
2018-06-05T07:58:45.839Z,66.30
2018-06-05T08:01:14.568Z,66.40
2018-06-05T08:03:43.063Z,64.50
2018-06-05T08:06:11.497Z,63.50
2018-06-05T08:08:40.021Z,63.90
2018-06-05T08:11:08.607Z,63.50
2018-06-05T08:13:37.207Z,62.50
2018-06-05T08:16:05.912Z,61.30
2018-06-05T08:18:34.335Z,59.80
2018-06-05T08:21:02.742Z,59.90
2018-06-05T08:23:31.191Z,60.40
2018-06-05T08:25:59.636Z,59.80
2018-06-05T08:28:28.123Z,59.30
2018-06-05T08:30:56.543Z,58.80
2018-06-05T08:33:25.040Z,59.10
2018-06-05T08:35:53.522Z,58.70
2018-06-05T08:38:22.036Z,59.30
2018-06-05T08:40:50.538Z,60.20
2018-06-05T08:43:18.983Z,57.50
2018-06-05T08:45:47.493Z,56.60
2018-06-05T08:48:15.914Z,56.30
2018-06-05T08:50:44.408Z,55.90
2018-06-05T08:53:12.829Z,56.40
2018-06-05T08:55:41.345Z,53.50
2018-06-05T08:58:09.900Z,54.40
2018-06-05T09:00:38.599Z,55.80
2018-06-05T09:03:07.068Z,58.10
2018-06-05T09:05:35.548Z,58.60
2018-06-05T09:08:03.995Z,57.70
2018-06-05T09:10:32.515Z,59.60
2018-06-05T09:13:01.027Z,59.80
2018-06-05T09:15:29.494Z,59.10
2018-06-05T09:17:57.953Z,57.70
2018-06-05T09:20:26.442Z,56.60
2018-06-05T09:22:54.877Z,53.80
2018-06-05T09:25:23.348Z,51.60
2018-06-05T09:27:52.303Z,52.50
2018-06-05T09:30:20.740Z,51.70
2018-06-05T09:32:49.178Z,52.90
2018-06-05T09:35:17.612Z,55.60
2018-06-05T09:37:46.227Z,54.50
2018-06-05T09:40:14.699Z,54.50
2018-06-05T09:42:43.087Z,54.00
2018-06-05T09:45:11.656Z,52.70
2018-06-05T09:47:40.085Z,52.10
2018-06-05T09:50:08.544Z,53.30
2018-06-05T09:52:37.069Z,54.70
2018-06-05T09:55:05.530Z,53.20
2018-06-05T09:57:33.977Z,52.30
2018-06-05T10:00:02.532Z,53.20
2018-06-05T10:02:30.984Z,55.20
2018-06-05T10:04:59.432Z,52.90
2018-06-05T10:07:27.891Z,52.60
2018-06-05T10:09:56.396Z,52.00
2018-06-05T10:12:24.866Z,50.80
2018-06-05T10:14:53.303Z,50.20
2018-06-05T10:17:21.794Z,50.90
2018-06-05T10:19:50.256Z,51.10
2018-06-05T10:22:18.914Z,52.20
2018-06-05T10:24:47.871Z,52.70
2018-06-05T10:27:16.438Z,51.40
2018-06-05T10:29:44.947Z,50.90
2018-06-05T10:32:13.535Z,50.80
2018-06-05T10:34:42.059Z,51.60
2018-06-05T10:37:10.452Z,50.50
2018-06-05T10:39:38.904Z,51.40
2018-06-05T10:42:07.350Z,50.20
2018-06-05T10:44:35.782Z,49.30
2018-06-05T10:47:04.304Z,49.60
2018-06-05T10:49:32.777Z,50.50
2018-06-05T10:52:01.253Z,50.40
2018-06-05T10:54:29.740Z,50.00
2018-06-05T10:56:58.168Z,50.10
2018-06-05T10:59:26.699Z,48.70
2018-06-05T11:01:55.197Z,47.60
2018-06-05T11:04:23.719Z,48.60
2018-06-05T11:06:52.178Z,46.80
2018-06-05T11:09:20.624Z,47.60
2018-06-05T11:11:49.151Z,45.10
2018-06-05T11:14:17.552Z,43.50
2018-06-05T11:16:46.009Z,42.50
2018-06-05T11:19:14.467Z,41.40
2018-06-05T11:21:42.978Z,42.70
2018-06-05T11:24:11.459Z,41.50
2018-06-05T11:26:39.922Z,40.60
2018-06-05T11:29:08.380Z,38.50
2018-06-05T11:31:36.840Z,37.50
2018-06-05T11:34:05.455Z,39.00
2018-06-05T11:36:33.950Z,39.70
2018-06-05T11:39:02.438Z,40.10
2018-06-05T11:41:30.857Z,39.00
2018-06-05T11:43:59.336Z,39.70
2018-06-05T11:46:27.811Z,39.00
2018-06-05T11:48:56.278Z,41.40
2018-06-05T11:51:24.771Z,40.90
2018-06-05T11:53:53.220Z,41.60
2018-06-05T11:56:21.682Z,40.10
2018-06-05T11:58:50.172Z,40.80
2018-06-05T12:01:18.690Z,39.50
2018-06-05T12:03:47.208Z,40.30
2018-06-05T12:06:15.691Z,42.40
2018-06-05T12:08:44.183Z,44.10
2018-06-05T12:11:12.591Z,42.90
2018-06-05T12:13:41.053Z,43.30
2018-06-05T12:16:09.503Z,40.60
2018-06-05T12:18:38.021Z,36.70
2018-06-05T12:21:06.512Z,38.20
2018-06-05T12:23:34.981Z,37.60
2018-06-05T12:26:03.451Z,36.70
2018-06-05T12:28:31.887Z,36.90
2018-06-05T12:31:00.373Z,36.60
2018-06-05T12:33:28.796Z,33.50
2018-06-05T12:35:57.291Z,35.80
2018-06-05T12:38:25.730Z,37.50
2018-06-05T12:40:54.208Z,39.10
2018-06-05T12:43:22.750Z,34.80
2018-06-05T12:45:51.261Z,35.00
2018-06-05T12:48:19.707Z,35.40
2018-06-05T12:50:48.156Z,35.40
2018-06-05T12:53:16.627Z,36.30
2018-06-05T12:55:45.076Z,36.30
2018-06-05T12:58:13.567Z,35.00
2018-06-05T13:00:42.029Z,34.50
2018-06-05T13:03:10.503Z,36.30
2018-06-05T13:05:38.922Z,36.60
2018-06-05T13:08:07.400Z,37.00
2018-06-05T13:10:35.915Z,35.20
2018-06-05T13:13:04.410Z,37.80
2018-06-05T13:15:32.818Z,37.80
2018-06-05T13:18:01.275Z,40.50
2018-06-05T13:20:29.679Z,38.60
2018-06-05T13:22:58.163Z,40.60
2018-06-05T13:25:26.575Z,39.70
2018-06-05T13:27:55.022Z,40.70
2018-06-05T13:30:23.512Z,38.30
2018-06-05T13:32:52.019Z,37.50
2018-06-05T13:35:20.649Z,37.80
2018-06-05T13:37:49.180Z,40.90
2018-06-05T13:40:17.704Z,41.60
2018-06-05T13:42:46.170Z,39.90
2018-06-05T13:45:14.704Z,40.00
2018-06-05T13:47:43.232Z,38.70
2018-06-05T13:50:11.757Z,36.40
2018-06-05T13:52:40.247Z,37.50
2018-06-05T13:55:08.748Z,35.80
2018-06-05T13:57:37.287Z,35.40
2018-06-05T14:00:06.099Z,34.20
2018-06-05T14:02:34.681Z,32.00
2018-06-05T14:05:03.286Z,33.00
2018-06-05T14:07:31.931Z,29.80
2018-06-05T14:10:00.386Z,29.10
2018-06-05T14:12:28.991Z,33.20
2018-06-05T14:14:57.424Z,36.40
2018-06-05T14:17:25.899Z,34.90
2018-06-05T14:19:54.475Z,32.10
2018-06-05T14:22:22.963Z,30.80
2018-06-05T14:24:51.460Z,28.90
2018-06-05T14:27:19.980Z,27.20
2018-06-05T14:29:48.516Z,28.00
2018-06-05T14:32:17.100Z,28.40
2018-06-05T14:34:45.679Z,28.20
2018-06-05T14:37:14.135Z,28.20
2018-06-05T14:39:42.777Z,30.00
2018-06-05T14:42:11.327Z,32.00
2018-06-05T14:44:39.811Z,34.50
2018-06-05T14:47:08.264Z,31.30
2018-06-05T14:49:36.829Z,30.00
2018-06-05T14:52:05.317Z,29.90
2018-06-05T14:54:33.898Z,27.80
2018-06-05T14:57:02.522Z,27.30
2018-06-05T14:59:31.086Z,27.30
2018-06-05T15:01:59.765Z,26.90
2018-06-05T15:04:28.298Z,26.30
2018-06-05T15:06:56.773Z,26.80
2018-06-05T15:09:25.357Z,25.40
2018-06-05T15:11:54.067Z,24.50
2018-06-05T15:14:22.659Z,25.70
2018-06-05T15:16:51.201Z,27.30
2018-06-05T15:19:19.664Z,26.40
2018-06-05T15:21:48.176Z,27.00
2018-06-05T15:24:16.639Z,28.00
2018-06-05T15:26:45.225Z,32.00
2018-06-05T15:29:13.718Z,35.10
2018-06-05T15:31:42.163Z,37.00
2018-06-05T15:34:10.635Z,40.30
2018-06-05T15:36:39.069Z,40.50
2018-06-05T15:39:08.418Z,42.00
2018-06-05T15:41:36.982Z,42.50
2018-06-05T15:44:05.485Z,42.40
2018-06-05T15:46:33.953Z,42.10
2018-06-05T15:49:02.439Z,43.80
2018-06-05T15:51:30.920Z,43.90
2018-06-05T15:53:59.405Z,42.30
2018-06-05T15:56:27.872Z,42.30
2018-06-05T15:58:56.440Z,44.40
2018-06-05T16:01:24.928Z,45.30
2018-06-05T16:03:53.375Z,45.50
2018-06-05T16:06:21.895Z,43.70
2018-06-05T16:08:50.464Z,45.30
2018-06-05T16:11:19.062Z,46.50
2018-06-05T16:13:47.556Z,47.10
2018-06-05T16:16:16.082Z,44.50
2018-06-05T16:18:44.663Z,44.70
2018-06-05T16:21:13.325Z,42.40
2018-06-05T16:23:41.794Z,43.80
2018-06-05T16:26:10.410Z,44.40
2018-06-05T16:28:38.924Z,43.70
2018-06-05T16:31:07.452Z,43.50
2018-06-05T16:33:35.944Z,39.60
2018-06-05T16:36:04.436Z,37.90
2018-06-05T16:38:32.944Z,37.00
2018-06-05T16:41:01.687Z,35.30
2018-06-05T16:43:30.291Z,34.30
2018-06-05T16:45:58.895Z,34.10
2018-06-05T16:48:27.403Z,33.00
2018-06-05T16:50:55.912Z,33.40
2018-06-05T16:53:24.469Z,34.10
2018-06-05T16:55:53.378Z,35.80
2018-06-05T16:58:21.825Z,38.40
2018-06-05T17:00:50.355Z,39.10
2018-06-05T17:03:19.160Z,40.30
2018-06-05T17:05:47.657Z,39.70
2018-06-05T17:08:16.186Z,39.80
2018-06-05T17:10:44.676Z,39.00
2018-06-05T17:15:41.384Z,40.20
2018-06-05T17:18:09.822Z,38.40
2018-06-05T17:20:38.379Z,38.00
2018-06-05T17:23:07.074Z,37.80
2018-06-05T17:25:35.512Z,38.20
2018-06-05T17:28:04.083Z,38.90
2018-06-05T17:30:32.694Z,38.20
2018-06-05T17:33:01.190Z,36.70
2018-06-05T17:35:29.845Z,36.50
2018-06-05T17:37:58.385Z,36.50
2018-06-05T17:40:26.909Z,36.10
2018-06-05T17:42:55.532Z,35.00
2018-06-05T17:45:24.175Z,35.40
2018-06-05T17:47:52.881Z,35.70
2018-06-05T17:50:21.859Z,36.90
2018-06-05T17:52:50.434Z,36.10
2018-06-05T17:55:18.972Z,35.80
2018-06-05T17:57:47.534Z,37.70
2018-06-05T18:00:16.072Z,38.60
2018-06-05T18:02:44.748Z,39.60
2018-06-05T18:05:13.296Z,40.50
2018-06-05T18:07:41.815Z,42.00
2018-06-05T18:10:10.291Z,43.00
2018-06-05T18:12:38.993Z,43.00
2018-06-05T18:15:07.698Z,45.60
2018-06-05T18:17:36.335Z,46.60
2018-06-05T18:20:04.915Z,49.00
2018-06-05T18:22:33.385Z,49.00
2018-06-05T18:25:02.089Z,49.00
2018-06-05T18:27:30.570Z,50.40
2018-06-05T18:29:59.105Z,49.90
2018-06-05T18:34:56.025Z,52.30
2018-06-05T18:37:24.726Z,52.60
2018-06-05T18:39:53.418Z,52.70
2018-06-05T18:42:21.886Z,55.70
2018-06-05T18:44:50.465Z,57.40
2018-06-05T18:47:19.186Z,59.20
2018-06-05T18:49:47.764Z,61.90
2018-06-05T18:52:16.273Z,63.70
2018-06-05T18:54:45.261Z,65.10
2018-06-05T18:57:13.766Z,66.30
2018-06-05T18:59:42.305Z,67.60
2018-06-05T19:02:10.939Z,68.50
2018-06-05T19:04:40.271Z,68.50
2018-06-05T19:07:08.928Z,69.60
2018-06-05T19:09:37.488Z,71.10
2018-06-05T19:12:06.308Z,71.30
2018-06-05T19:14:34.823Z,72.30
2018-06-05T19:17:03.289Z,72.50
2018-06-05T19:19:31.893Z,72.80
2018-06-05T19:22:00.561Z,73.60
2018-06-05T19:24:29.207Z,74.20
2018-06-05T19:26:57.752Z,75.40
2018-06-05T19:29:26.492Z,75.60
2018-06-05T19:31:54.882Z,75.50
2018-06-05T19:34:23.468Z,76.40
2018-06-05T19:36:52.177Z,76.40
2018-06-05T19:39:20.728Z,76.90
2018-06-05T19:41:49.279Z,77.20
2018-06-05T19:44:17.768Z,78.00
2018-06-05T19:46:47.170Z,78.00
2018-06-05T19:49:18.629Z,78.30
2018-06-05T19:51:47.230Z,78.10
2018-06-05T19:54:15.881Z,78.00
2018-06-05T19:56:44.468Z,78.60
2018-06-05T19:59:13.069Z,79.00
2018-06-05T20:01:41.509Z,79.50
2018-06-05T20:04:10.097Z,80.00
2018-06-05T20:06:38.788Z,80.20
2018-06-05T20:09:08.182Z,80.60
2018-06-05T20:11:36.782Z,81.20
2018-06-05T20:14:05.317Z,81.30
2018-06-05T20:16:33.924Z,81.80
2018-06-05T20:19:02.487Z,82.30
2018-06-05T20:21:30.992Z,82.60
2018-06-05T20:23:59.555Z,83.40
2018-06-05T20:26:28.274Z,82.70
2018-06-05T20:28:56.859Z,82.60
2018-06-05T20:31:25.368Z,82.50
2018-06-05T20:33:53.816Z,82.40
2018-06-05T20:36:22.901Z,82.80
2018-06-05T20:38:51.415Z,82.70
2018-06-05T20:41:19.922Z,82.60
2018-06-05T20:43:48.511Z,82.70
2018-06-05T20:46:17.041Z,82.60
2018-06-05T20:48:45.594Z,83.00
2018-06-05T20:51:14.288Z,83.70
2018-06-05T20:53:43.014Z,83.50
2018-06-05T20:56:11.548Z,83.80
2018-06-05T20:58:40.323Z,83.50
2018-06-05T21:01:08.982Z,83.70
2018-06-05T21:03:37.447Z,83.90
2018-06-05T21:06:06.123Z,84.10
2018-06-05T21:08:34.618Z,84.10
2018-06-05T21:11:03.099Z,84.40
2018-06-05T21:13:31.567Z,84.30
2018-06-05T21:16:00.027Z,84.60
2018-06-05T21:18:28.511Z,85.00
2018-06-05T21:20:57.028Z,86.10
2018-06-05T21:23:25.699Z,85.10
2018-06-05T21:25:54.567Z,85.30
2018-06-05T21:28:23.322Z,85.30
2018-06-05T21:30:51.799Z,85.40
2018-06-05T21:33:20.397Z,85.50
2018-06-05T21:35:49.047Z,85.80
2018-06-05T21:38:17.727Z,85.80
2018-06-05T21:40:46.194Z,86.10
2018-06-05T21:43:14.731Z,86.20
2018-06-05T21:45:43.333Z,86.50
2018-06-05T21:48:11.884Z,86.50
2018-06-05T21:50:41.197Z,86.40
2018-06-05T21:53:09.755Z,86.50
2018-06-05T21:55:38.378Z,86.50
2018-06-05T22:00:35.203Z,86.80
2018-06-05T22:03:03.877Z,86.90
2018-06-05T22:05:32.478Z,86.70
2018-06-05T22:08:01.144Z,86.60
2018-06-05T22:10:29.617Z,86.60
2018-06-05T22:12:58.198Z,86.70
2018-06-05T22:15:26.804Z,87.20
2018-06-05T22:17:55.284Z,86.60
2018-06-05T22:20:23.735Z,87.10
2018-06-05T22:22:52.175Z,87.20
2018-06-05T22:25:20.795Z,87.40
2018-06-05T22:27:49.552Z,87.50
2018-06-05T22:30:18.054Z,87.60
2018-06-05T22:32:46.464Z,87.80
2018-06-05T22:35:14.926Z,87.70
2018-06-05T22:37:43.517Z,87.70
2018-06-05T22:40:12.064Z,87.80
2018-06-05T22:42:41.220Z,88.20
2018-06-05T22:45:09.759Z,88.20
2018-06-05T22:47:38.280Z,88.30
2018-06-05T22:50:06.830Z,88.30
2018-06-05T22:52:35.267Z,88.40
2018-06-05T22:55:03.783Z,88.60
2018-06-05T22:57:32.207Z,88.40
2018-06-05T23:00:00.668Z,88.90
2018-06-05T23:02:29.050Z,88.80
2018-06-05T23:04:57.533Z,88.50
2018-06-05T23:07:26.076Z,88.90
2018-06-05T23:09:54.537Z,89.00
2018-06-05T23:12:23.027Z,89.20
2018-06-05T23:14:51.442Z,89.50
2018-06-05T23:17:19.867Z,89.30
2018-06-05T23:19:48.367Z,89.90
2018-06-05T23:22:16.800Z,89.60
2018-06-05T23:24:45.228Z,89.60
2018-06-05T23:27:13.735Z,90.00
2018-06-05T23:29:42.280Z,90.00
2018-06-05T23:32:10.715Z,90.00
2018-06-05T23:34:39.125Z,89.80
2018-06-05T23:37:07.599Z,89.70
2018-06-05T23:39:36.092Z,90.10
2018-06-05T23:42:04.596Z,90.30
2018-06-05T23:44:33.119Z,90.00
2018-06-05T23:47:01.556Z,90.20
2018-06-05T23:49:30.056Z,90.50
2018-06-05T23:51:58.687Z,90.60
2018-06-05T23:54:27.466Z,90.70
2018-06-05T23:56:56.007Z,90.60
2018-06-05T23:59:24.476Z,90.50
